createdAt,value
2022-12-09T00:01:16.778Z,3.40
2022-12-09T00:03:44.152Z,3.40
2022-12-09T00:06:23.888Z,3.30
2022-12-09T00:08:51.660Z,3.40
2022-12-09T00:11:19.311Z,3.30
2022-12-09T00:13:57.457Z,3.30
2022-12-09T00:16:25.317Z,3.20
2022-12-09T00:21:34.698Z,3.30
2022-12-09T00:31:28.691Z,3.10
2022-12-09T00:33:58.906Z,3.10
2022-12-09T00:36:26.311Z,3.10
2022-12-09T00:38:55.018Z,3.10
2022-12-09T00:41:22.094Z,3.10
2022-12-09T00:46:16.663Z,3.10
2022-12-09T00:48:45.548Z,2.80
2022-12-09T00:51:15.778Z,2.90
2022-12-09T00:56:10.535Z,2.80
2022-12-09T01:01:04.861Z,2.80
2022-12-09T01:03:32.031Z,3.30
2022-12-09T01:05:59.089Z,2.90
2022-12-09T01:08:26.128Z,2.70
2022-12-09T01:10:53.223Z,2.80
2022-12-09T01:15:47.561Z,2.60
2022-12-09T01:18:14.449Z,2.60
2022-12-09T01:20:41.137Z,2.70
2022-12-09T01:23:08.453Z,2.60
2022-12-09T01:30:30.140Z,2.60
2022-12-09T01:35:24.907Z,2.50
2022-12-09T01:40:19.709Z,2.60
2022-12-09T01:42:46.865Z,2.60
2022-12-09T01:45:23.513Z,2.70
2022-12-09T01:48:05.378Z,2.70
2022-12-09T01:50:36.093Z,2.80
2022-12-09T01:55:30.862Z,2.60
2022-12-09T02:00:24.908Z,2.60
2022-12-09T02:02:53.421Z,2.60
2022-12-09T02:07:52.403Z,2.60
2022-12-09T02:10:20.447Z,2.60
2022-12-09T02:13:15.060Z,2.70
2022-12-09T02:15:57.169Z,2.70
2022-12-09T02:18:43.650Z,2.60
2022-12-09T02:21:20.451Z,2.60
2022-12-09T02:24:14.653Z,2.30
2022-12-09T02:26:48.441Z,2.60
2022-12-09T02:29:33.677Z,2.50
2022-12-09T02:32:10.428Z,2.50
2022-12-09T02:34:44.275Z,2.40
2022-12-09T02:37:17.783Z,2.40
2022-12-09T02:39:52.277Z,2.40
2022-12-09T02:42:22.878Z,2.40
2022-12-09T02:44:51.496Z,2.10
2022-12-09T02:47:21.368Z,2.30
2022-12-09T02:49:52.950Z,2.20
2022-12-09T02:57:19.407Z,2.20
2022-12-09T03:02:35.331Z,2.30
2022-12-09T03:05:11.323Z,2.20
2022-12-09T03:10:18.859Z,2.20
2022-12-09T03:12:52.773Z,2.00
2022-12-09T03:15:23.030Z,1.90
2022-12-09T03:17:53.191Z,1.80
2022-12-09T03:20:26.588Z,2.10
2022-12-09T03:22:57.781Z,1.90
2022-12-09T03:25:33.303Z,1.80
2022-12-09T03:28:23.055Z,1.90
2022-12-09T03:30:51.316Z,1.90
2022-12-09T03:35:57.009Z,1.90
2022-12-09T03:38:28.801Z,1.80
2022-12-09T03:41:04.676Z,1.90
2022-12-09T03:43:36.545Z,1.90
2022-12-09T03:46:03.580Z,1.90
2022-12-09T03:48:31.360Z,1.90
2022-12-09T03:51:30.195Z,1.80
2022-12-09T03:54:04.292Z,1.70
2022-12-09T03:56:40.141Z,2.00
2022-12-09T03:59:13.803Z,1.90
2022-12-09T04:01:42.437Z,1.90
2022-12-09T04:04:10.192Z,1.90
2022-12-09T04:06:37.809Z,1.90
2022-12-09T04:09:05.399Z,1.90
2022-12-09T04:18:55.960Z,1.80
2022-12-09T04:23:50.224Z,1.80
2022-12-09T04:26:20.099Z,1.90
2022-12-09T04:28:47.102Z,2.00
2022-12-09T04:31:15.508Z,1.90
2022-12-09T04:36:13.068Z,1.90
2022-12-09T04:38:40.868Z,1.90
2022-12-09T04:41:08.126Z,1.90
2022-12-09T04:43:35.233Z,2.00
2022-12-09T04:46:07.405Z,1.90
2022-12-09T04:53:29.280Z,2.00
2022-12-09T04:56:03.730Z,2.00
2022-12-09T05:00:58.876Z,2.10
2022-12-09T05:03:26.140Z,2.10
2022-12-09T05:08:27.228Z,2.10
2022-12-09T05:10:58.099Z,2.00
2022-12-09T05:13:27.385Z,2.10
2022-12-09T05:16:15.636Z,1.90
2022-12-09T05:18:43.936Z,2.10
2022-12-09T05:23:40.156Z,2.00
2022-12-09T05:26:10.025Z,1.90
2022-12-09T05:28:37.905Z,1.90
2022-12-09T05:31:08.011Z,2.00
2022-12-09T05:33:35.246Z,1.90
2022-12-09T05:38:30.618Z,1.80
2022-12-09T05:40:59.993Z,1.80
2022-12-09T05:45:54.157Z,2.00
2022-12-09T05:51:13.121Z,2.00
2022-12-09T05:53:39.871Z,2.00
2022-12-09T05:58:34.904Z,2.20
2022-12-09T06:01:08.853Z,2.10
2022-12-09T06:03:36.651Z,2.00
2022-12-09T06:06:09.407Z,1.90
2022-12-09T06:08:37.060Z,1.90
2022-12-09T06:11:05.836Z,1.90
2022-12-09T06:13:32.749Z,1.70
2022-12-09T06:16:04.637Z,1.80
2022-12-09T06:18:32.311Z,1.70
2022-12-09T06:20:59.692Z,1.80
2022-12-09T06:23:27.000Z,1.60
2022-12-09T06:28:21.085Z,1.50
2022-12-09T06:30:47.821Z,1.80
2022-12-09T06:36:02.928Z,1.80
2022-12-09T06:40:57.106Z,1.70
2022-12-09T06:50:46.456Z,1.90
2022-12-09T06:55:40.567Z,1.90
2022-12-09T07:00:35.532Z,1.90
2022-12-09T07:07:57.660Z,1.90
2022-12-09T07:12:52.633Z,1.90
2022-12-09T07:15:19.437Z,1.90
2022-12-09T07:20:14.090Z,1.90
2022-12-09T07:22:40.874Z,2.00
2022-12-09T07:25:08.343Z,2.10
2022-12-09T07:27:35.719Z,2.20
2022-12-09T07:32:30.571Z,2.20
2022-12-09T07:34:57.855Z,2.00
2022-12-09T07:39:52.033Z,2.10
2022-12-09T07:42:18.723Z,2.40
2022-12-09T07:44:47.865Z,2.50
2022-12-09T07:49:42.377Z,2.50
2022-12-09T07:54:37.124Z,2.40
2022-12-09T07:57:04.323Z,2.60
2022-12-09T07:59:31.245Z,2.50
2022-12-09T08:04:32.820Z,2.50
2022-12-09T08:07:00.743Z,2.60
2022-12-09T08:09:28.219Z,2.30
2022-12-09T08:14:22.763Z,2.50
2022-12-09T08:16:49.932Z,2.80
2022-12-09T08:21:45.542Z,2.80
2022-12-09T08:24:15.360Z,2.90
2022-12-09T08:29:12.221Z,2.80
2022-12-09T08:31:42.737Z,2.90
2022-12-09T08:34:11.036Z,2.90
2022-12-09T08:36:38.065Z,2.90
2022-12-09T08:41:36.857Z,3.00
2022-12-09T08:44:08.880Z,3.00
2022-12-09T08:46:38.165Z,3.00
2022-12-09T08:49:06.351Z,3.10
2022-12-09T08:51:34.233Z,2.90
2022-12-09T08:54:02.469Z,3.20
2022-12-09T08:56:29.964Z,3.30
2022-12-09T08:58:57.291Z,3.20
2022-12-09T09:01:32.334Z,3.20
2022-12-09T09:04:08.360Z,3.20
2022-12-09T09:06:40.454Z,3.20
2022-12-09T09:09:10.110Z,3.30
2022-12-09T09:11:38.464Z,3.30
2022-12-09T09:14:07.711Z,3.30
2022-12-09T09:16:35.671Z,3.40
2022-12-09T09:19:05.743Z,3.40
2022-12-09T09:24:01.513Z,3.30
2022-12-09T09:28:57.234Z,3.60
2022-12-09T09:31:25.036Z,3.50
2022-12-09T09:36:23.914Z,3.60
2022-12-09T09:38:54.338Z,3.50
2022-12-09T09:41:55.468Z,3.50
2022-12-09T09:44:38.763Z,3.60
2022-12-09T09:47:37.773Z,3.50
2022-12-09T09:50:39.564Z,3.70
2022-12-09T09:53:25.488Z,3.80
2022-12-09T09:56:10.576Z,3.80
2022-12-09T09:58:56.673Z,3.80
2022-12-09T10:01:31.474Z,3.90
2022-12-09T10:04:20.741Z,3.90
2022-12-09T10:07:14.206Z,3.90
2022-12-09T10:10:22.974Z,3.90
2022-12-09T10:13:05.246Z,4.10
2022-12-09T10:15:45.250Z,4.10
2022-12-09T10:18:25.999Z,4.10
2022-12-09T10:20:53.243Z,4.40
2022-12-09T10:23:22.484Z,4.20
2022-12-09T10:25:56.807Z,4.20
2022-12-09T10:30:53.704Z,4.20
2022-12-09T10:33:36.256Z,4.20
2022-12-09T10:36:05.061Z,4.50
2022-12-09T10:38:36.409Z,4.50
2022-12-09T10:41:47.453Z,4.40
2022-12-09T10:44:23.150Z,4.60
2022-12-09T10:47:04.476Z,4.70
2022-12-09T10:49:33.302Z,4.40
2022-12-09T10:52:00.822Z,4.30
2022-12-09T10:54:36.471Z,4.30
2022-12-09T10:57:20.922Z,4.70
2022-12-09T11:00:05.905Z,4.30
2022-12-09T11:02:33.997Z,4.10
2022-12-09T11:05:28.662Z,4.50
2022-12-09T11:07:58.129Z,4.60
2022-12-09T11:10:28.318Z,4.70
2022-12-09T11:13:07.447Z,4.50
2022-12-09T11:15:39.166Z,4.50
2022-12-09T11:18:16.134Z,4.40
2022-12-09T11:23:13.813Z,4.50
2022-12-09T11:26:06.137Z,4.50
2022-12-09T11:28:39.380Z,4.60
2022-12-09T11:31:28.854Z,4.30
2022-12-09T11:33:59.378Z,4.00
2022-12-09T11:36:40.667Z,4.20
2022-12-09T11:39:26.061Z,4.20
2022-12-09T11:42:17.389Z,4.00
2022-12-09T11:45:06.186Z,4.00
2022-12-09T11:50:36.819Z,4.20
2022-12-09T11:53:17.378Z,4.20
2022-12-09T11:56:07.089Z,4.40
2022-12-09T11:58:48.235Z,4.40
2022-12-09T12:01:23.388Z,4.50
2022-12-09T12:03:57.586Z,4.50
2022-12-09T12:06:27.531Z,4.70
2022-12-09T12:09:12.257Z,4.70
2022-12-09T12:11:46.570Z,4.80
2022-12-09T12:14:21.070Z,4.80
2022-12-09T12:17:09.375Z,5.00
2022-12-09T12:19:40.864Z,5.20
2022-12-09T12:22:20.505Z,5.30
2022-12-09T12:25:06.281Z,5.30
2022-12-09T12:30:10.103Z,5.20
2022-12-09T12:33:59.840Z,5.20
2022-12-09T12:36:26.034Z,5.00
2022-12-09T12:39:21.722Z,5.00
2022-12-09T12:42:02.142Z,4.80
2022-12-09T12:47:44.821Z,4.80
2022-12-09T12:50:35.525Z,4.70
2022-12-09T12:53:26.802Z,4.70
2022-12-09T12:55:56.446Z,4.80
2022-12-09T12:58:31.673Z,4.80
2022-12-09T13:03:57.607Z,4.70
2022-12-09T13:07:05.135Z,4.70
2022-12-09T13:09:59.405Z,4.70
2022-12-09T13:12:58.506Z,4.70
2022-12-09T13:15:33.515Z,4.80
2022-12-09T13:18:07.293Z,4.80
2022-12-09T13:20:43.628Z,4.70
2022-12-09T13:23:32.990Z,4.70
2022-12-09T13:26:02.871Z,4.70
2022-12-09T13:28:57.857Z,4.70
2022-12-09T13:31:34.213Z,4.70
2022-12-09T13:36:36.035Z,4.60
2022-12-09T13:39:03.937Z,4.70
2022-12-09T13:41:30.551Z,4.70
2022-12-09T13:44:06.590Z,4.60
2022-12-09T13:46:34.162Z,4.70
2022-12-09T13:49:19.836Z,4.70
2022-12-09T13:51:52.492Z,4.80
2022-12-09T13:54:22.820Z,4.80
2022-12-09T13:57:04.805Z,4.70
2022-12-09T13:59:55.006Z,4.70
2022-12-09T14:02:42.702Z,4.70
2022-12-09T14:05:21.387Z,4.80
2022-12-09T14:08:01.615Z,4.70
2022-12-09T14:10:43.961Z,4.60
2022-12-09T14:13:32.983Z,4.40
2022-12-09T14:16:10.617Z,4.50
2022-12-09T14:18:39.866Z,4.40
2022-12-09T14:21:18.894Z,4.30
2022-12-09T14:24:16.252Z,4.20
2022-12-09T14:27:10.019Z,4.10
2022-12-09T14:29:47.877Z,4.00
2022-12-09T14:32:40.125Z,3.90
2022-12-09T14:35:09.787Z,4.00
2022-12-09T14:37:58.896Z,3.80
2022-12-09T14:40:52.815Z,3.80
2022-12-09T14:43:25.522Z,3.80
2022-12-09T14:46:02.839Z,3.50
2022-12-09T14:48:34.211Z,3.60
2022-12-09T14:51:12.852Z,3.50
2022-12-09T14:53:40.013Z,3.50
2022-12-09T14:56:07.066Z,3.50
2022-12-09T14:58:34.181Z,3.50
2022-12-09T15:01:06.411Z,3.40
2022-12-09T15:03:39.518Z,3.20
2022-12-09T15:06:17.045Z,3.30
2022-12-09T15:08:43.790Z,3.30
2022-12-09T15:11:16.635Z,3.30
2022-12-09T15:13:46.544Z,3.20
2022-12-09T15:16:18.956Z,3.20
2022-12-09T15:18:46.617Z,3.10
2022-12-09T15:21:30.821Z,3.10
2022-12-09T15:23:59.329Z,3.10
2022-12-09T15:26:28.947Z,3.30
2022-12-09T15:28:57.272Z,3.30
2022-12-09T15:31:26.970Z,3.10
2022-12-09T15:33:56.311Z,2.90
2022-12-09T15:36:28.608Z,3.00
2022-12-09T15:39:07.439Z,2.90
2022-12-09T15:41:58.963Z,2.90
2022-12-09T15:44:27.832Z,2.90
2022-12-09T15:46:56.976Z,2.80
2022-12-09T15:49:28.848Z,2.60
2022-12-09T15:51:56.700Z,3.00
2022-12-09T15:54:28.910Z,2.60
2022-12-09T15:57:01.949Z,2.60
2022-12-09T15:59:36.540Z,2.60
2022-12-09T16:04:45.262Z,2.60
2022-12-09T16:07:15.025Z,2.90
2022-12-09T16:09:41.954Z,2.50
2022-12-09T16:12:28.667Z,2.50
2022-12-09T16:17:31.880Z,2.40
2022-12-09T16:22:31.893Z,2.40
2022-12-09T16:25:14.576Z,2.40
2022-12-09T16:27:48.351Z,2.40
2022-12-09T16:30:22.417Z,2.40
2022-12-09T16:32:54.394Z,2.30
2022-12-09T16:35:27.333Z,2.40
2022-12-09T16:37:57.002Z,2.40
2022-12-09T16:42:53.194Z,2.20
2022-12-09T16:45:37.895Z,2.10
2022-12-09T16:48:05.014Z,2.20
2022-12-09T16:50:35.774Z,2.30
2022-12-09T16:53:05.411Z,2.10
2022-12-09T16:55:32.620Z,2.00
2022-12-09T16:58:00.193Z,2.00
2022-12-09T17:00:27.132Z,1.90
2022-12-09T17:03:01.882Z,2.00
2022-12-09T17:05:28.624Z,2.00
2022-12-09T17:15:19.227Z,1.70
2022-12-09T17:17:48.893Z,1.80
2022-12-09T17:20:16.235Z,1.70
2022-12-09T17:22:42.943Z,1.80
2022-12-09T17:27:37.558Z,1.90
2022-12-09T17:32:31.655Z,2.20
2022-12-09T17:37:25.512Z,1.70
2022-12-09T17:42:26.785Z,1.60
2022-12-09T17:59:36.029Z,1.50
2022-12-09T18:04:32.389Z,1.60
2022-12-09T18:06:59.030Z,1.50
2022-12-09T18:11:52.865Z,1.80
2022-12-09T18:16:47.058Z,1.50
2022-12-09T18:19:16.606Z,1.60
2022-12-09T18:21:44.794Z,1.70
2022-12-09T18:26:41.892Z,1.60
2022-12-09T18:29:10.134Z,1.30
2022-12-09T18:31:36.861Z,1.20
2022-12-09T18:34:03.597Z,1.50
2022-12-09T18:36:30.472Z,1.20
2022-12-09T18:41:29.683Z,1.30
2022-12-09T18:43:58.769Z,1.20
2022-12-09T18:46:31.872Z,1.00
2022-12-09T18:49:01.095Z,1.20
2022-12-09T18:51:28.586Z,1.20
2022-12-09T18:53:58.357Z,1.20
2022-12-09T19:01:41.837Z,1.10
2022-12-09T19:04:14.764Z,1.20
2022-12-09T19:06:43.741Z,1.10
2022-12-09T19:09:15.879Z,1.10
2022-12-09T19:14:11.069Z,1.70
2022-12-09T19:21:38.049Z,0.90
2022-12-09T19:26:34.348Z,1.00
2022-12-09T19:29:04.073Z,0.90
2022-12-09T19:33:59.952Z,1.00
2022-12-09T19:36:28.441Z,0.90
2022-12-09T19:41:22.770Z,1.00
2022-12-09T19:43:55.352Z,1.10
2022-12-09T19:51:18.160Z,1.30
2022-12-09T19:53:45.344Z,0.90
2022-12-09T19:56:14.497Z,1.00
2022-12-09T19:58:41.829Z,1.20
2022-12-09T20:01:20.270Z,1.20
2022-12-09T20:03:50.622Z,0.90
2022-12-09T20:06:19.905Z,1.00
2022-12-09T20:08:47.387Z,0.90
2022-12-09T20:11:23.026Z,0.90
2022-12-09T20:18:48.415Z,1.00
2022-12-09T20:21:18.835Z,0.80
2022-12-09T20:23:46.529Z,1.00
2022-12-09T20:26:23.408Z,0.90
2022-12-09T20:28:51.723Z,0.90
2022-12-09T20:31:21.384Z,1.00
2022-12-09T20:33:51.759Z,1.00
2022-12-09T20:36:21.481Z,1.00
2022-12-09T20:38:50.806Z,1.00
2022-12-09T20:41:18.287Z,1.00
2022-12-09T20:43:46.569Z,0.90
2022-12-09T20:46:21.891Z,0.70
2022-12-09T20:48:49.565Z,0.70
2022-12-09T20:51:20.952Z,0.70
2022-12-09T20:56:16.931Z,0.80
2022-12-09T20:58:45.137Z,0.60
2022-12-09T21:01:18.540Z,0.50
2022-12-09T21:11:10.127Z,0.80
2022-12-09T21:16:07.204Z,0.80
2022-12-09T21:18:35.363Z,0.60
2022-12-09T21:21:02.583Z,0.90
2022-12-09T21:23:34.125Z,0.60
2022-12-09T21:26:13.084Z,0.80
2022-12-09T21:28:41.209Z,1.10
2022-12-09T21:31:13.723Z,0.80
2022-12-09T21:33:41.990Z,0.50
2022-12-09T21:36:14.458Z,0.60
2022-12-09T21:38:41.475Z,0.40
2022-12-09T21:41:13.949Z,0.40
2022-12-09T21:43:41.267Z,0.40
2022-12-09T21:46:14.094Z,0.60
2022-12-09T21:51:10.579Z,0.60
2022-12-09T21:53:37.984Z,0.60
2022-12-09T21:56:05.925Z,0.60
2022-12-09T21:58:33.641Z,0.40
2022-12-09T22:03:29.619Z,0.60
2022-12-09T22:05:59.581Z,0.50
2022-12-09T22:08:27.048Z,0.50
2022-12-09T22:23:30.901Z,0.10
2022-12-09T22:38:14.813Z,0.00
2022-12-09T22:40:42.065Z,0.00
2022-12-09T22:45:36.393Z,0.20
2022-12-09T22:48:03.440Z,0.10
2022-12-09T22:50:30.306Z,0.20
2022-12-09T22:52:57.106Z,0.40
2022-12-09T23:00:18.723Z,-0.10
2022-12-09T23:02:45.712Z,0.00
2022-12-09T23:05:12.427Z,-0.10
2022-12-09T23:12:34.056Z,-0.10
2022-12-09T23:17:28.277Z,0.10
2022-12-09T23:19:54.993Z,-0.20
2022-12-09T23:29:42.872Z,-0.30
2022-12-09T23:32:09.522Z,-0.20
2022-12-09T23:41:57.580Z,0.10
2022-12-09T23:44:24.373Z,0.00
2022-12-09T23:49:18.288Z,-0.20
2022-12-09T23:54:14.649Z,0.00
2022-12-09T23:56:49.668Z,-0.10
2022-12-09T23:59:19.945Z,0.00
